Terminal Aerodrome Forecast
Issued by NWS Jackson, MS

Home | Current Version | Previous Version | Text Only | Print | Product List | Glossary On
Versions: 1 2 3 4 5 6 7 8 9 10 11 12 13 14 15
000
FTUS44 KJAN 181129
TAFGLH
TAF
KGLH 181129Z 1812/1912 00000KT 1SM BR OVC003
     FM181600 00000KT 2SM BR OVC003
     FM181800 27005KT P6SM BKN008 BKN250
     FM182000 18005KT P6SM BKN030 BKN250
     FM190000 00000KT 6SM BR OVC008
     FM190400 00000KT 1SM BR OVC004=

USA.gov is the U.S. government's official web portal to all federal, state and local government web resources and services.